Time;durP1;ratioP1;P1;durP2;ratioP2;P2;SDS_P1;SDS_P2;PMS_P1;PMS_P2;Temp;Humidity;BMP_temperature;BMP_pressure;BME280_temperature;BME280_humidity;BME280_pressure;Samples;Min_cycle;Max_cycle;Signal;HPM_P1;HPM_P2
2023/08/01 00:01:28;;;;;;;9.35;7.40;;;19.90;99.90;;;;;;5074057;28;20025;-63
2023/08/01 00:03:54;;;;;;;10.57;7.85;;;19.90;99.90;;;;;;5073873;28;20052;-63
2023/08/01 00:06:20;;;;;;;11.93;8.73;;;19.90;99.90;;;;;;5074041;28;20052;-63
2023/08/01 00:08:46;;;;;;;10.88;8.93;;;19.90;99.90;;;;;;5073755;28;20082;-63
2023/08/01 00:11:14;;;;;;;16.35;8.95;;;19.80;99.90;;;;;;5073903;28;20024;-63
2023/08/01 00:13:40;;;;;;;13.15;9.50;;;19.80;99.90;;;;;;5072347;28;20374;-63
2023/08/01 00:16:06;;;;;;;9.70;8.70;;;19.70;99.90;;;;;;5073900;28;20047;-63
2023/08/01 00:18:31;;;;;;;11.10;9.80;;;19.80;99.90;;;;;;5073658;28;20095;-63
2023/08/01 00:20:58;;;;;;;12.45;10.00;;;19.70;99.90;;;;;;5073660;28;20470;-64
2023/08/01 00:23:24;;;;;;;14.25;10.15;;;19.80;99.90;;;;;;5073747;28;20025;-63
2023/08/01 00:25:51;;;;;;;11.98;10.27;;;19.80;99.90;;;;;;5073525;28;20529;-63
2023/08/01 00:28:22;;;;;;;10.80;9.73;;;19.70;99.90;;;;;;5073610;28;20036;-63
2023/08/01 00:30:48;;;;;;;14.18;11.68;;;19.80;99.90;;;;;;5073549;28;20047;-63
2023/08/01 00:33:14;;;;;;;13.07;10.93;;;19.70;99.90;;;;;;5072253;28;20545;-63
2023/08/01 00:35:40;;;;;;;15.02;10.13;;;19.80;99.90;;;;;;5073406;28;20039;-63
2023/08/01 00:38:06;;;;;;;15.65;11.43;;;19.80;99.90;;;;;;5073520;28;20029;-63
2023/08/01 00:40:32;;;;;;;14.48;10.23;;;19.80;99.90;;;;;;5073560;28;20028;-63
2023/08/01 00:42:58;;;;;;;15.50;10.82;;;19.80;99.90;;;;;;5073328;28;20042;-62
2023/08/01 00:45:25;;;;;;;12.52;9.43;;;19.80;99.90;;;;;;5073186;28;20044;-63
2023/08/01 00:47:51;;;;;;;13.40;10.95;;;19.90;99.90;;;;;;5074516;28;20388;-63
2023/08/01 00:50:20;;;;;;;17.08;11.50;;;19.80;99.90;;;;;;5073302;28;20025;-63
2023/08/01 00:52:46;;;;;;;13.52;9.80;;;19.80;99.90;;;;;;5073560;28;20024;-63
2023/08/01 00:55:12;;;;;;;11.43;9.60;;;19.80;99.90;;;;;;5073050;28;20024;-63
2023/08/01 00:57:38;;;;;;;13.52;11.32;;;19.80;99.90;;;;;;5073305;28;20100;-64
2023/08/01 01:00:04;;;;;;;15.20;10.63;;;19.90;99.90;;;;;;5072623;28;20135;-63
2023/08/01 01:02:30;;;;;;;15.18;10.77;;;19.80;99.90;;;;;;5073195;28;20078;-64
2023/08/01 01:04:56;;;;;;;14.02;11.18;;;19.80;99.90;;;;;;5072978;28;20044;-63
2023/08/01 01:07:22;;;;;;;14.30;11.95;;;19.80;99.90;;;;;;5072968;28;20032;-63
2023/08/01 01:09:48;;;;;;;17.02;11.20;;;19.70;99.90;;;;;;5073257;28;20017;-63
2023/08/01 01:12:13;;;;;;;13.73;11.23;;;19.70;99.90;;;;;;5073190;28;20028;-63
2023/08/01 01:14:39;;;;;;;14.43;10.45;;;19.80;99.90;;;;;;5072944;28;20031;-64
2023/08/01 01:17:05;;;;;;;17.50;11.75;;;19.80;99.90;;;;;;5072908;28;20020;-63
2023/08/01 01:19:30;;;;;;;17.02;12.18;;;19.80;99.90;;;;;;5072671;28;20021;-63
2023/08/01 01:21:57;;;;;;;18.80;12.13;;;19.80;99.90;;;;;;5072771;28;20035;-63
2023/08/01 01:24:23;;;;;;;15.23;12.00;;;19.80;99.90;;;;;;5072918;28;20457;-69
2023/08/01 01:26:49;;;;;;;17.60;13.25;;;19.80;99.90;;;;;;5072883;28;20051;-72
2023/08/01 01:29:15;;;;;;;13.27;11.80;;;19.80;99.90;;;;;;5072713;28;20119;-72
2023/08/01 01:31:41;;;;;;;17.17;12.52;;;19.70;99.90;;;;;;5072802;28;20488;-72
2023/08/01 01:34:08;;;;;;;15.57;11.15;;;19.70;99.90;;;;;;5072836;28;20025;-72
2023/08/01 01:36:34;;;;;;;19.55;13.00;;;19.70;99.90;;;;;;5072837;28;20477;-71
2023/08/01 01:38:59;;;;;;;20.05;12.55;;;19.70;99.90;;;;;;5072900;28;20028;-63
2023/08/01 01:41:25;;;;;;;14.80;12.15;;;19.70;99.90;;;;;;5072607;28;20213;-63
2023/08/01 01:43:51;;;;;;;18.08;12.32;;;19.80;99.90;;;;;;5072611;28;20039;-63
2023/08/01 01:46:16;;;;;;;13.93;11.90;;;19.80;99.90;;;;;;5072599;28;20111;-63
2023/08/01 01:48:42;;;;;;;16.60;12.77;;;19.80;99.90;;;;;;5072421;28;20495;-63
2023/08/01 01:51:08;;;;;;;18.60;13.15;;;19.80;99.90;;;;;;5072335;28;20099;-63
2023/08/01 01:53:33;;;;;;;19.42;12.77;;;19.70;99.90;;;;;;5071194;28;20473;-63
2023/08/01 01:55:59;;;;;;;15.02;11.88;;;19.70;99.90;;;;;;5072477;28;20496;-63
2023/08/01 01:58:25;;;;;;;16.90;12.55;;;19.80;99.90;;;;;;5072448;28;20047;-63
2023/08/01 02:00:50;;;;;;;16.58;13.15;;;19.80;99.90;;;;;;5072426;28;20151;-63
2023/08/01 02:03:16;;;;;;;16.33;12.25;;;19.70;99.90;;;;;;5072433;28;20046;-63
2023/08/01 02:05:41;;;;;;;19.30;12.20;;;19.70;99.90;;;;;;5072855;28;20377;-63
2023/08/01 02:08:07;;;;;;;15.98;12.85;;;19.70;99.90;;;;;;5072383;28;20036;-63
2023/08/01 02:10:33;;;;;;;19.58;13.63;;;19.70;99.90;;;;;;5072884;28;20027;-63
2023/08/01 02:12:58;;;;;;;18.15;12.55;;;19.60;99.90;;;;;;5072245;28;20033;-63
2023/08/01 02:15:24;;;;;;;16.13;11.65;;;19.70;99.90;;;;;;5072565;28;20052;-63
2023/08/01 02:17:50;;;;;;;15.93;12.32;;;19.80;99.90;;;;;;5072347;28;20043;-63
2023/08/01 02:20:15;;;;;;;19.52;13.20;;;19.80;99.90;;;;;;5072678;28;20150;-63
2023/08/01 02:22:41;;;;;;;18.85;14.02;;;19.70;99.90;;;;;;5072411;28;20448;-63
2023/08/01 02:25:07;;;;;;;19.48;13.65;;;19.70;99.90;;;;;;5070951;28;20111;-63
2023/08/01 02:27:32;;;;;;;16.80;12.40;;;19.60;99.90;;;;;;5072111;28;20028;-63
2023/08/01 02:29:58;;;;;;;18.75;12.85;;;19.60;99.90;;;;;;5072515;28;20025;-63
2023/08/01 02:32:24;;;;;;;17.42;13.20;;;19.60;99.90;;;;;;5073395;28;20033;-63
2023/08/01 02:34:49;;;;;;;22.45;13.50;;;19.60;99.90;;;;;;5076029;28;20074;-63
2023/08/01 02:37:15;;;;;;;19.58;13.15;;;19.60;99.90;;;;;;5075686;28;20016;-63
2023/08/01 02:39:40;;;;;;;23.90;13.25;;;19.60;99.90;;;;;;5075769;28;20060;-63
2023/08/01 02:42:06;;;;;;;18.67;12.70;;;19.70;99.90;;;;;;5075327;28;20724;-63
2023/08/01 02:44:32;;;;;;;16.55;12.90;;;19.80;99.90;;;;;;5075614;28;20062;-63
2023/08/01 02:46:57;;;;;;;16.63;12.60;;;19.70;99.90;;;;;;5075512;28;20398;-63
2023/08/01 02:49:23;;;;;;;21.63;13.90;;;19.70;99.90;;;;;;5075559;28;20035;-63
2023/08/01 02:51:48;;;;;;;19.98;12.32;;;19.60;99.90;;;;;;5075565;28;20024;-63
2023/08/01 02:54:14;;;;;;;16.48;12.27;;;19.70;99.90;;;;;;5075493;28;20024;-63
2023/08/01 02:56:41;;;;;;;15.52;13.43;;;19.70;99.90;;;;;;5075351;28;20345;-63
2023/08/01 02:59:08;;;;;;;20.33;13.57;;;19.70;99.90;;;;;;5075187;28;20032;-64
2023/08/01 03:01:35;;;;;;;19.58;13.10;;;19.70;99.90;;;;;;5075512;28;20020;-64
2023/08/01 03:04:05;;;;;;;16.08;11.88;;;19.60;99.90;;;;;;5075431;28;20024;-64
2023/08/01 03:06:33;;;;;;;17.48;12.13;;;19.70;99.90;;;;;;5075384;28;20370;-62
2023/08/01 03:08:59;;;;;;;18.98;13.52;;;19.80;99.90;;;;;;5078907;28;20020;-63
2023/08/01 03:11:26;;;;;;;17.25;12.85;;;19.80;99.90;;;;;;5078509;28;20036;-72
2023/08/01 03:13:51;;;;;;;20.73;12.73;;;19.60;99.90;;;;;;5075141;28;20100;-71
2023/08/01 03:16:17;;;;;;;24.85;13.27;;;19.60;99.90;;;;;;5075191;28;20072;-72
2023/08/01 03:18:43;;;;;;;19.00;13.30;;;19.70;99.90;;;;;;5075093;28;20025;-72
2023/08/01 03:21:09;;;;;;;17.88;12.80;;;19.60;99.90;;;;;;5075022;28;20025;-72
2023/08/01 03:23:35;;;;;;;20.77;13.73;;;19.60;99.90;;;;;;5074932;28;20021;-63
2023/08/01 03:26:00;;;;;;;17.60;13.07;;;19.50;99.90;;;;;;5074585;28;20031;-63
2023/08/01 03:28:26;;;;;;;20.15;13.30;;;19.60;99.90;;;;;;5074772;28;20036;-63
2023/08/01 03:30:53;;;;;;;21.35;13.95;;;19.60;99.90;;;;;;5075252;28;20032;-63
2023/08/01 03:33:20;;;;;;;23.17;12.98;;;19.50;99.90;;;;;;5074896;28;20051;-63
2023/08/01 03:35:45;;;;;;;20.25;14.48;;;19.60;99.90;;;;;;5074845;28;20017;-63
2023/08/01 03:38:11;;;;;;;18.33;14.95;;;19.60;99.90;;;;;;5074621;28;20534;-63
2023/08/01 03:40:37;;;;;;;19.60;14.63;;;19.60;99.90;;;;;;5074363;28;20025;-63
2023/08/01 03:43:02;;;;;;;19.85;14.90;;;19.60;99.90;;;;;;5074342;28;20025;-63
2023/08/01 03:45:28;;;;;;;16.70;14.10;;;19.60;99.90;;;;;;5074465;28;20016;-63
2023/08/01 03:47:53;;;;;;;19.83;13.13;;;19.70;99.90;;;;;;5074568;28;20059;-63
2023/08/01 03:50:19;;;;;;;23.45;14.98;;;19.70;99.90;;;;;;5074428;28;20373;-63
2023/08/01 03:52:45;;;;;;;24.98;13.55;;;19.80;99.90;;;;;;5074396;28;20029;-63
2023/08/01 03:55:11;;;;;;;17.23;13.07;;;19.80;99.90;;;;;;5074086;28;20080;-63
2023/08/01 03:57:38;;;;;;;21.42;14.18;;;19.80;99.90;;;;;;5074327;28;20051;-63
2023/08/01 04:00:06;;;;;;;19.42;14.15;;;19.80;99.90;;;;;;5073876;28;20094;-63
2023/08/01 04:02:31;;;;;;;20.40;13.63;;;19.60;99.90;;;;;;5072850;28;20064;-63
2023/08/01 04:04:57;;;;;;;19.63;12.70;;;19.60;99.90;;;;;;5074242;28;20059;-63
2023/08/01 04:07:23;;;;;;;19.88;13.05;;;19.70;99.90;;;;;;5073957;28;20481;-64
2023/08/01 04:09:48;;;;;;;16.13;11.25;;;19.70;99.90;;;;;;5073657;28;20024;-64
2023/08/01 04:12:14;;;;;;;16.92;12.95;;;19.60;99.90;;;;;;5074038;28;20104;-63
2023/08/01 04:14:40;;;;;;;14.50;12.38;;;19.50;99.90;;;;;;5072533;28;20025;-64
2023/08/01 04:17:05;;;;;;;14.75;11.77;;;19.50;99.90;;;;;;5074212;28;20073;-63
2023/08/01 04:19:31;;;;;;;17.33;11.25;;;19.60;99.90;;;;;;5073563;28;20478;-63
2023/08/01 04:21:56;;;;;;;18.38;10.20;;;19.60;99.90;;;;;;5073992;28;20037;-63
2023/08/01 04:24:25;;;;;;;19.33;10.68;;;19.60;99.90;;;;;;5073404;28;20020;-63
2023/08/01 04:26:51;;;;;;;14.95;9.57;;;19.70;99.90;;;;;;5073761;28;20047;-70
2023/08/01 04:29:17;;;;;;;14.30;10.18;;;19.50;99.90;;;;;;5073647;28;20032;-69
2023/08/01 04:31:43;;;;;;;13.60;9.43;;;19.40;99.90;;;;;;5073642;28;20032;-69
2023/08/01 04:34:09;;;;;;;13.30;9.63;;;19.30;99.90;;;;;;5073785;28;20028;-69
2023/08/01 04:36:34;;;;;;;16.13;9.38;;;19.20;99.90;;;;;;5073606;28;20068;-69
2023/08/01 04:39:00;;;;;;;13.00;8.93;;;19.20;99.90;;;;;;5073207;28;20020;-69
2023/08/01 04:41:26;;;;;;;12.73;9.20;;;19.20;99.90;;;;;;5073577;28;20494;-68
2023/08/01 04:43:52;;;;;;;13.95;8.90;;;19.20;99.90;;;;;;5073426;28;20028;-69
2023/08/01 04:46:17;;;;;;;15.48;8.88;;;19.20;99.90;;;;;;5073482;28;20032;-69
2023/08/01 04:48:43;;;;;;;12.30;8.88;;;19.20;99.90;;;;;;5073417;28;20461;-69
2023/08/01 04:51:08;;;;;;;11.32;8.68;;;19.20;99.90;;;;;;5073223;28;20071;-69
2023/08/01 04:53:34;;;;;;;13.25;8.38;;;19.20;99.90;;;;;;5073010;28;20021;-71
2023/08/01 04:55:59;;;;;;;10.93;8.25;;;19.20;99.90;;;;;;5072475;28;20478;-68
2023/08/01 04:58:25;;;;;;;10.82;7.57;;;19.20;99.90;;;;;;5081702;28;20028;-68
2023/08/01 05:00:51;;;;;;;12.73;7.38;;;19.20;99.90;;;;;;5090707;28;20028;-69
2023/08/01 05:03:16;;;;;;;11.68;8.00;;;19.20;99.90;;;;;;5093254;28;20119;-69
2023/08/01 05:05:42;;;;;;;13.38;8.35;;;19.20;99.90;;;;;;5093177;28;20016;-69
2023/08/01 05:08:07;;;;;;;11.35;7.82;;;19.20;99.90;;;;;;5092304;28;20457;-69
2023/08/01 05:10:33;;;;;;;12.98;7.40;;;19.20;99.90;;;;;;5093201;28;20032;-69
2023/08/01 05:12:59;;;;;;;14.07;7.45;;;19.20;99.90;;;;;;5093472;28;20102;-69
2023/08/01 05:15:24;;;;;;;15.25;7.47;;;19.20;99.90;;;;;;5093146;28;20101;-69
2023/08/01 05:17:50;;;;;;;14.23;7.07;;;19.20;99.90;;;;;;5093435;28;20020;-69
2023/08/01 05:20:15;;;;;;;9.73;7.32;;;19.20;99.90;;;;;;5093368;28;20103;-69
2023/08/01 05:22:41;;;;;;;9.60;7.43;;;19.20;99.90;;;;;;5093050;28;20016;-69
2023/08/01 05:25:07;;;;;;;11.85;6.72;;;19.20;99.90;;;;;;5091821;28;20418;-68
2023/08/01 05:27:34;;;;;;;12.02;7.18;;;19.20;99.90;;;;;;5091951;28;20036;-69
2023/08/01 05:29:59;;;;;;;15.10;7.50;;;19.20;99.90;;;;;;5094153;28;20020;-69
2023/08/01 05:32:25;;;;;;;10.73;6.70;;;19.20;99.90;;;;;;5093288;28;20381;-73
2023/08/01 05:34:50;;;;;;;8.85;6.60;;;19.30;99.90;;;;;;5093281;28;20043;-72
2023/08/01 05:37:16;;;;;;;9.98;7.10;;;19.20;99.90;;;;;;5092875;28;20450;-70
2023/08/01 05:39:42;;;;;;;11.07;6.40;;;19.30;99.90;;;;;;5092980;28;20031;-71
2023/08/01 05:42:10;;;;;;;12.98;6.47;;;19.30;99.90;;;;;;5092985;28;20024;-71
2023/08/01 05:44:36;;;;;;;13.63;7.05;;;19.20;99.90;;;;;;5093178;28;20016;-72
2023/08/01 05:47:01;;;;;;;10.35;6.38;;;19.30;99.90;;;;;;5092950;28;20036;-72
2023/08/01 05:49:29;;;;;;;11.23;5.90;;;19.30;99.90;;;;;;5092988;28;20073;-72
2023/08/01 05:51:54;;;;;;;12.38;6.47;;;19.30;99.90;;;;;;5092588;28;20031;-72
2023/08/01 05:54:20;;;;;;;10.70;6.00;;;19.30;99.90;;;;;;5089657;28;20024;-70
2023/08/01 05:56:46;;;;;;;10.73;6.57;;;19.30;99.90;;;;;;5078433;28;20029;-69
2023/08/01 05:59:11;;;;;;;11.43;5.88;;;19.30;99.90;;;;;;5082488;28;20485;-69
2023/08/01 06:01:37;;;;;;;10.70;6.03;;;19.30;99.90;;;;;;5092688;28;20024;-65
2023/08/01 06:04:03;;;;;;;12.50;6.22;;;19.30;99.90;;;;;;5077115;28;20485;-69
2023/08/01 06:06:28;;;;;;;12.45;6.20;;;19.30;99.90;;;;;;5086669;28;20486;-68
2023/08/01 06:08:54;;;;;;;11.02;6.13;;;19.30;99.90;;;;;;5096653;28;20050;-72
2023/08/01 06:11:20;;;;;;;15.32;6.95;;;19.30;99.90;;;;;;5083812;28;20094;-68
2023/08/01 06:13:45;;;;;;;10.73;6.18;;;19.30;99.90;;;;;;5076305;28;20469;-67
2023/08/01 06:16:11;;;;;;;11.70;6.05;;;19.30;99.90;;;;;;5094255;28;20064;-68
2023/08/01 06:18:36;;;;;;;11.52;6.35;;;19.30;99.90;;;;;;5075974;28;20508;-66
2023/08/01 06:21:02;;;;;;;11.98;6.13;;;19.30;99.90;;;;;;5075969;28;21405;-67
2023/08/01 06:23:28;;;;;;;14.65;6.55;;;19.30;99.90;;;;;;5074720;28;20043;-67
2023/08/01 06:25:53;;;;;;;12.88;6.10;;;19.30;99.90;;;;;;5075183;28;20025;-68
2023/08/01 06:28:19;;;;;;;15.63;7.07;;;19.30;99.90;;;;;;5076025;28;20037;-67
2023/08/01 06:30:45;;;;;;;12.95;6.18;;;19.30;99.90;;;;;;5075683;28;20462;-67
2023/08/01 06:33:11;;;;;;;12.10;6.65;;;19.30;99.90;;;;;;5075816;28;20040;-67
2023/08/01 06:35:36;;;;;;;13.90;6.65;;;19.30;99.90;;;;;;5080299;28;20020;-67
2023/08/01 06:38:02;;;;;;;12.93;6.15;;;19.30;99.90;;;;;;5081890;28;20382;-67
2023/08/01 06:40:27;;;;;;;13.27;6.88;;;19.30;99.90;;;;;;5084995;28;20028;-70
2023/08/01 06:42:53;;;;;;;13.38;6.47;;;19.30;99.90;;;;;;5075605;28;20021;-68
2023/08/01 06:45:19;;;;;;;8.57;5.35;;;19.30;99.90;;;;;;5074034;28;20427;-69
2023/08/01 06:47:44;;;;;;;12.52;5.60;;;19.40;99.90;;;;;;5073307;28;20044;-71
2023/08/01 06:50:10;;;;;;;13.38;6.03;;;19.40;99.90;;;;;;5075081;28;20016;-68
2023/08/01 06:52:35;;;;;;;10.43;6.00;;;19.40;99.90;;;;;;5075611;28;20031;-67
2023/08/01 06:55:01;;;;;;;13.32;6.60;;;19.40;99.90;;;;;;5080146;28;20027;-66
2023/08/01 06:57:27;;;;;;;11.52;6.55;;;19.40;99.90;;;;;;5082486;28;20029;-69
2023/08/01 06:59:53;;;;;;;16.85;6.35;;;19.40;99.90;;;;;;5076193;28;20032;-69
2023/08/01 07:02:18;;;;;;;14.18;6.40;;;19.40;99.90;;;;;;5081813;28;20025;-71
2023/08/01 07:04:44;;;;;;;16.70;6.50;;;19.40;99.90;;;;;;5083278;28;20507;-72
2023/08/01 07:07:10;;;;;;;11.20;5.53;;;19.40;99.90;;;;;;5077426;28;20045;-70
2023/08/01 07:09:35;;;;;;;14.80;6.85;;;19.40;99.90;;;;;;5075082;28;20028;-71
2023/08/01 07:12:01;;;;;;;16.98;6.40;;;19.50;99.90;;;;;;5078735;28;20377;-71
2023/08/01 07:14:27;;;;;;;11.32;6.30;;;19.40;99.90;;;;;;5084645;28;20020;-68
2023/08/01 07:16:53;;;;;;;14.50;5.68;;;19.50;99.90;;;;;;5086420;28;20024;-67
2023/08/01 07:19:18;;;;;;;14.15;5.30;;;19.60;99.90;;;;;;5081710;28;20069;-66
2023/08/01 07:21:48;;;;;;;9.80;5.28;;;19.70;99.90;;;;;;5095236;28;20051;-66
2023/08/01 07:24:14;;;;;;;14.73;5.28;;;19.70;99.90;;;;;;5082109;28;20029;-65
2023/08/01 07:26:41;;;;;;;12.25;4.95;;;19.70;99.90;;;;;;5077873;28;20086;-65
2023/08/01 07:29:09;;;;;;;10.75;5.20;;;19.70;99.90;;;;;;5075424;28;20056;-66
2023/08/01 07:31:34;;;;;;;8.10;4.82;;;19.70;99.90;;;;;;5086931;28;20465;-65
2023/08/01 07:34:00;;;;;;;9.93;4.63;;;19.70;99.90;;;;;;5083500;28;20031;-66
2023/08/01 07:36:25;;;;;;;14.25;5.20;;;19.70;99.90;;;;;;5095084;28;20028;-66
2023/08/01 07:38:51;;;;;;;14.00;4.72;;;19.80;99.90;;;;;;5082317;28;20024;-65
2023/08/01 07:41:17;;;;;;;17.10;4.60;;;19.70;99.90;;;;;;5076877;28;21360;-66
2023/08/01 07:43:42;;;;;;;10.05;4.45;;;19.70;99.90;;;;;;5084681;28;20104;-65
2023/08/01 07:46:09;;;;;;;12.63;4.55;;;19.80;99.90;;;;;;5082602;28;20381;-65
2023/08/01 07:48:35;;;;;;;11.40;4.82;;;19.80;99.90;;;;;;5086941;28;20477;-65
2023/08/01 07:51:00;;;;;;;12.23;4.97;;;19.80;99.90;;;;;;5072949;28;20070;-66
2023/08/01 07:53:27;;;;;;;13.60;5.25;;;19.80;99.90;;;;;;5080942;28;20036;-71
2023/08/01 07:55:53;;;;;;;12.98;4.80;;;19.80;99.90;;;;;;5080391;28;20020;-70
2023/08/01 07:58:19;;;;;;;10.57;4.78;;;19.80;99.90;;;;;;5082728;28;20466;-69
2023/08/01 08:00:44;;;;;;;11.90;4.28;;;19.80;99.90;;;;;;5090473;28;20038;-69
2023/08/01 08:03:10;;;;;;;9.82;4.18;;;19.90;99.90;;;;;;5076638;28;20116;-70
2023/08/01 08:05:38;;;;;;;9.73;4.53;;;20.00;99.90;;;;;;5074219;28;20432;-70
2023/08/01 08:08:04;;;;;;;13.05;3.90;;;20.00;99.90;;;;;;5077167;28;20228;-74
2023/08/01 08:10:30;;;;;;;12.25;3.53;;;20.00;99.90;;;;;;5086731;28;20030;-66
2023/08/01 08:12:56;;;;;;;11.88;4.40;;;19.90;99.90;;;;;;5091338;28;20032;-65
2023/08/01 08:15:23;;;;;;;11.05;4.53;;;20.00;99.90;;;;;;5092537;28;20024;-66
2023/08/01 08:17:49;;;;;;;10.90;4.07;;;20.00;99.90;;;;;;5093346;28;20027;-65
2023/08/01 08:20:14;;;;;;;7.53;3.00;;;20.00;99.90;;;;;;5092194;28;20107;-67
2023/08/01 08:22:40;;;;;;;8.20;2.78;;;20.00;99.90;;;;;;5093694;28;20530;-67
2023/08/01 08:25:06;;;;;;;9.15;3.75;;;20.00;99.90;;;;;;5093762;28;20020;-69
2023/08/01 08:27:31;;;;;;;12.15;4.72;;;20.10;99.90;;;;;;5093910;28;20058;-71
2023/08/01 08:29:57;;;;;;;10.73;4.07;;;20.10;99.90;;;;;;5087824;28;20024;-69
2023/08/01 08:32:23;;;;;;;9.52;3.40;;;20.10;99.90;;;;;;5082056;28;20036;-71
2023/08/01 08:34:48;;;;;;;10.15;4.00;;;20.20;99.90;;;;;;5092255;28;20058;-68
2023/08/01 08:37:14;;;;;;;13.23;3.75;;;20.20;99.90;;;;;;5089692;28;20457;-64
2023/08/01 08:39:39;;;;;;;11.05;3.08;;;20.20;99.90;;;;;;5092198;28;20178;-63
2023/08/01 08:42:05;;;;;;;9.75;4.32;;;20.20;99.90;;;;;;5074029;28;20492;-63
2023/08/01 08:44:35;;;;;;;7.22;3.58;;;20.20;99.90;;;;;;5078412;28;20027;-63
2023/08/01 08:47:04;;;;;;;9.70;4.03;;;20.30;99.90;;;;;;5079699;28;20060;-63
2023/08/01 08:49:31;;;;;;;7.90;2.92;;;20.30;99.90;;;;;;5080967;28;20050;-63
2023/08/01 08:51:57;;;;;;;7.63;2.70;;;20.40;99.90;;;;;;5073075;28;20021;-63
2023/08/01 08:54:23;;;;;;;9.35;2.47;;;20.30;99.90;;;;;;5074070;28;20028;-70
2023/08/01 08:56:49;;;;;;;7.75;2.88;;;20.40;99.90;;;;;;5073146;28;20020;-64
2023/08/01 08:59:15;;;;;;;8.93;2.67;;;20.30;99.90;;;;;;5077908;28;20028;-65
2023/08/01 09:01:40;;;;;;;10.73;3.30;;;20.30;99.90;;;;;;5079679;28;20029;-63
2023/08/01 09:04:06;;;;;;;8.35;3.50;;;20.30;99.90;;;;;;5073980;28;20482;-64
2023/08/01 09:06:37;;;;;;;10.88;3.30;;;20.30;99.90;;;;;;5078643;28;20024;-62
2023/08/01 09:09:08;;;;;;;14.00;3.47;;;20.30;99.90;;;;;;5072821;28;20039;-63
2023/08/01 09:11:44;;;;;;;7.43;3.70;;;20.20;99.90;;;;;;5073380;28;20016;-64
2023/08/01 09:14:10;;;;;;;8.30;4.13;;;20.20;99.90;;;;;;5075886;28;20025;-63
2023/08/01 09:16:36;;;;;;;12.35;4.00;;;20.20;99.90;;;;;;5077058;28;20028;-62
2023/08/01 09:19:02;;;;;;;9.07;4.07;;;20.20;99.90;;;;;;5071877;28;20421;-64
2023/08/01 09:21:34;;;;;;;10.00;3.30;;;20.20;99.90;;;;;;5075307;28;20066;-63
2023/08/01 09:24:19;;;;;;;9.23;3.38;;;20.20;99.90;;;;;;5077414;28;20036;-64
2023/08/01 09:26:46;;;;;;;9.48;3.65;;;20.20;99.90;;;;;;5078539;28;20074;-64
2023/08/01 09:29:12;;;;;;;8.40;2.00;;;20.20;99.90;;;;;;5080291;28;20036;-64
2023/08/01 09:31:39;;;;;;;9.70;3.58;;;20.20;99.90;;;;;;5087915;28;20036;-63
2023/08/01 09:34:17;;;;;;;11.02;3.33;;;20.30;99.90;;;;;;5081430;28;20095;-63
2023/08/01 09:36:43;;;;;;;8.43;3.08;;;20.30;99.90;;;;;;5079513;28;20020;-63
2023/08/01 09:39:08;;;;;;;9.60;3.15;;;20.40;99.90;;;;;;5072744;28;20029;-66
2023/08/01 09:41:34;;;;;;;13.18;3.65;;;20.40;99.90;;;;;;5076110;28;20025;-62
2023/08/01 09:44:00;;;;;;;7.40;3.38;;;20.40;99.90;;;;;;5081472;28;20445;-63
2023/08/01 09:46:26;;;;;;;9.35;2.95;;;20.40;99.90;;;;;;5078715;28;20523;-64
2023/08/01 09:48:51;;;;;;;10.85;2.72;;;20.40;99.90;;;;;;5076640;28;20170;-67
2023/08/01 09:51:18;;;;;;;6.97;2.63;;;20.40;99.90;;;;;;5077291;28;20481;-64
2023/08/01 09:53:52;;;;;;;8.25;2.80;;;20.40;99.90;;;;;;5097086;28;20028;-66
2023/08/01 09:56:20;;;;;;;9.07;2.70;;;20.50;99.90;;;;;;5085773;28;20497;-64
2023/08/01 09:58:47;;;;;;;9.55;3.22;;;20.50;99.90;;;;;;5078757;28;20042;-67
2023/08/01 10:01:17;;;;;;;4.95;2.13;;;20.50;99.90;;;;;;5087670;28;20493;-65
2023/08/01 10:03:47;;;;;;;5.65;2.20;;;20.50;99.90;;;;;;5079071;28;20031;-67
2023/08/01 10:06:24;;;;;;;5.93;2.25;;;20.50;99.90;;;;;;5077362;28;20020;-65
2023/08/01 10:08:52;;;;;;;8.60;2.60;;;20.50;99.90;;;;;;5079453;28;20469;-67
2023/08/01 10:11:19;;;;;;;8.27;2.75;;;20.60;99.90;;;;;;5094776;28;20027;-63
2023/08/01 10:13:46;;;;;;;6.47;2.42;;;20.60;99.90;;;;;;5094726;28;20040;-68
2023/08/01 10:16:13;;;;;;;7.90;1.88;;;20.50;99.90;;;;;;5086200;28;20028;-66
2023/08/01 10:18:39;;;;;;;13.05;2.38;;;20.50;99.90;;;;;;5085123;28;20021;-67
2023/08/01 10:21:13;;;;;;;6.72;2.20;;;20.50;99.90;;;;;;5081448;28;20113;-68
2023/08/01 10:23:40;;;;;;;8.07;2.40;;;20.50;99.90;;;;;;5076018;28;20027;-65
2023/08/01 10:26:08;;;;;;;8.00;2.58;;;20.60;99.90;;;;;;5075549;28;20028;-68
2023/08/01 10:28:35;;;;;;;6.47;2.25;;;20.60;99.90;;;;;;5078498;28;20069;-69
2023/08/01 10:31:14;;;;;;;5.22;2.20;;;20.60;99.90;;;;;;5077870;28;20043;-67
2023/08/01 10:33:42;;;;;;;10.23;2.78;;;20.60;99.90;;;;;;5075609;28;20028;-67
2023/08/01 10:36:22;;;;;;;7.07;2.20;;;20.70;99.90;;;;;;5077936;28;20034;-67
2023/08/01 10:38:53;;;;;;;8.60;2.55;;;20.70;99.90;;;;;;5086571;28;20025;-69
2023/08/01 10:41:29;;;;;;;9.20;2.30;;;20.70;99.90;;;;;;5093018;28;20107;-69
2023/08/01 10:44:12;;;;;;;6.13;2.10;;;20.80;99.90;;;;;;5095761;28;20389;-66
2023/08/01 10:46:56;;;;;;;7.90;2.17;;;20.80;99.90;;;;;;5075616;28;20032;-72
2023/08/01 10:49:34;;;;;;;6.15;2.00;;;20.80;99.90;;;;;;5087803;28;20077;-67
2023/08/01 10:52:00;;;;;;;8.80;2.22;;;20.80;99.80;;;;;;5089159;28;20032;-66
2023/08/01 10:54:26;;;;;;;7.40;2.15;;;20.80;99.80;;;;;;5074351;28;20074;-67
2023/08/01 10:56:53;;;;;;;6.47;2.15;;;20.80;99.20;;;;;;5089942;28;20099;-68
2023/08/01 10:59:20;;;;;;;7.53;2.17;;;20.80;99.00;;;;;;5077705;28;20043;-67
2023/08/01 11:01:50;;;;;;;6.38;2.08;;;20.80;99.00;;;;;;5081790;28;20021;-67
2023/08/01 11:04:23;;;;;;;9.35;1.70;;;20.90;99.20;;;;;;5082194;28;20081;-67
2023/08/01 11:06:52;;;;;;;6.22;1.50;;;20.90;98.90;;;;;;5085035;28;20099;-69
2023/08/01 11:09:20;;;;;;;3.55;1.25;;;20.90;98.10;;;;;;5074148;28;20055;-66
2023/08/01 11:11:49;;;;;;;9.32;1.80;;;21.00;98.00;;;;;;5085343;28;20016;-65
2023/08/01 11:14:15;;;;;;;6.68;1.60;;;21.10;97.90;;;;;;5080063;28;20472;-67
2023/08/01 11:16:43;;;;;;;5.65;1.38;;;21.10;98.00;;;;;;5080212;28;20039;-64
2023/08/01 11:19:18;;;;;;;4.95;1.45;;;21.10;97.50;;;;;;5088203;28;20019;-62
2023/08/01 11:21:44;;;;;;;9.60;2.03;;;21.10;97.30;;;;;;5074604;28;20835;-66
2023/08/01 11:24:10;;;;;;;7.45;1.90;;;21.00;97.50;;;;;;5077180;28;20025;-66
2023/08/01 11:26:39;;;;;;;7.43;1.63;;;21.00;97.80;;;;;;5084362;28;20062;-65
2023/08/01 11:29:05;;;;;;;5.68;1.80;;;21.00;97.90;;;;;;5077744;28;20033;-65
2023/08/01 11:31:31;;;;;;;5.82;1.80;;;21.00;98.00;;;;;;5088811;28;20506;-65
2023/08/01 11:33:57;;;;;;;8.95;2.20;;;21.00;97.60;;;;;;5077707;28;20016;-64
2023/08/01 11:36:27;;;;;;;4.50;1.35;;;21.00;97.60;;;;;;5084304;28;20477;-66
2023/08/01 11:38:53;;;;;;;4.20;1.38;;;21.10;97.40;;;;;;5088124;28;20119;-66
2023/08/01 11:41:19;;;;;;;5.90;1.60;;;21.10;96.30;;;;;;5075919;28;20135;-67
2023/08/01 11:43:44;;;;;;;4.15;1.30;;;21.20;96.20;;;;;;5072661;28;20491;-65
2023/08/01 11:46:10;;;;;;;5.95;1.42;;;21.30;95.80;;;;;;5078272;28;20161;-66
2023/08/01 11:48:36;;;;;;;3.78;1.45;;;21.40;95.90;;;;;;5079226;28;20544;-65
2023/08/01 11:51:02;;;;;;;4.65;1.67;;;21.40;95.70;;;;;;5082440;28;20031;-65
2023/08/01 11:53:29;;;;;;;4.95;1.50;;;21.40;95.80;;;;;;5085486;28;20534;-68
2023/08/01 11:55:56;;;;;;;6.55;1.70;;;21.40;95.40;;;;;;5078984;28;20013;-73
2023/08/01 11:58:41;;;;;;;8.55;1.90;;;21.40;95.40;;;;;;5081107;28;20453;-72
2023/08/01 12:01:10;;;;;;;4.55;1.30;;;21.40;95.70;;;;;;5082297;28;20032;-70
2023/08/01 12:03:43;;;;;;;8.13;1.98;;;21.30;95.80;;;;;;5084057;28;20062;-69
2023/08/01 12:06:11;;;;;;;3.67;1.48;;;21.40;95.80;;;;;;5088600;28;20073;-73
2023/08/01 12:08:38;;;;;;;8.95;1.80;;;21.50;95.50;;;;;;5078533;28;20076;-76
2023/08/01 12:11:04;;;;;;;7.80;1.55;;;21.40;96.10;;;;;;5082801;28;20534;-75
2023/08/01 12:13:31;;;;;;;6.85;1.90;;;21.40;96.10;;;;;;5077269;28;20553;-71
2023/08/01 12:15:57;;;;;;;5.85;1.95;;;21.40;95.50;;;;;;5074995;28;20012;-81
2023/08/01 12:18:28;;;;;;;7.93;1.65;;;21.50;95.00;;;;;;5082253;28;20020;-70
2023/08/01 12:20:54;;;;;;;8.18;1.58;;;21.40;94.80;;;;;;5086019;28;20373;-74
2023/08/01 12:23:21;;;;;;;5.28;1.10;;;21.40;94.90;;;;;;5074194;28;20025;-70
2023/08/01 12:25:47;;;;;;;6.50;1.10;;;21.40;94.50;;;;;;5077300;28;20454;-70
2023/08/01 12:28:16;;;;;;;5.70;1.40;;;21.40;94.30;;;;;;5077108;28;20032;-68
2023/08/01 12:30:42;;;;;;;3.70;1.17;;;21.40;94.20;;;;;;5085230;28;20059;-71
2023/08/01 12:33:08;;;;;;;4.40;1.27;;;21.40;93.80;;;;;;5076149;28;20466;-67
2023/08/01 12:35:34;;;;;;;4.57;1.45;;;21.50;93.70;;;;;;5080634;28;20024;-73